Time;durP1;ratioP1;P1;durP2;ratioP2;P2;SDS_P1;SDS_P2;PMS_P1;PMS_P2;Temp;Humidity;BMP_temperature;BMP_pressure;BME280_temperature;BME280_humidity;BME280_pressure;Samples;Min_cycle;Max_cycle;Signal;HPM_P1;HPM_P2
2023/09/14 00:01:03;;;;;;;1.48;0.77;;;;;;;25.70;52.04;99669.19;5387499;26;34567;-79
2023/09/14 00:03:31;;;;;;;0.40;0.40;;;;;;;25.22;53.13;99672.63;5367338;26;34715;-78
2023/09/14 00:05:59;;;;;;;0.57;0.57;;;;;;;25.06;53.51;99676.06;5347404;26;32290;-78
2023/09/14 00:08:32;;;;;;;0.55;0.55;;;;;;;25.00;53.93;99679.44;5329973;26;32779;-78
2023/09/14 00:11:03;;;;;;;0.95;0.90;;;;;;;25.02;54.48;99678.28;5367045;26;33756;-78
2023/09/14 00:13:30;;;;;;;1.27;0.77;;;;;;;25.25;54.17;99675.84;5348167;26;32854;-78
2023/09/14 00:15:58;;;;;;;1.55;0.43;;;;;;;24.88;55.38;99678.06;5348090;26;33243;-78
2023/09/14 00:18:27;;;;;;;0.40;0.40;;;;;;;24.46;56.78;99684.22;5349022;26;34118;-78
2023/09/14 00:20:57;;;;;;;1.23;0.62;;;;;;;24.36;57.22;99664.56;5348527;26;33977;-78
2023/09/14 00:23:24;;;;;;;0.43;0.43;;;;;;;24.38;57.04;99665.28;5367524;26;34905;-78
2023/09/14 00:25:53;;;;;;;0.65;0.65;;;;;;;24.60;56.52;99669.31;5366417;26;33938;-78
2023/09/14 00:28:20;;;;;;;8.50;0.90;;;;;;;24.33;57.43;99667.56;5348379;26;35314;-78
2023/09/14 00:30:51;;;;;;;1.25;0.57;;;;;;;24.10;58.09;99656.44;5366686;26;35606;-79
2023/09/14 00:33:21;;;;;;;0.22;0.22;;;;;;;24.36;57.39;99659.16;5348382;26;33734;-78
2023/09/14 00:35:49;;;;;;;0.50;0.50;;;;;;;24.00;58.51;99661.94;5348633;26;33880;-79
2023/09/14 00:38:17;;;;;;;0.80;0.80;;;;;;;23.95;58.90;99664.25;5348637;26;35263;-80
2023/09/14 00:40:45;;;;;;;0.60;0.60;;;;;;;23.99;58.70;99660.25;5367043;26;36087;-79
2023/09/14 00:43:13;;;;;;;1.23;0.82;;;;;;;23.84;59.21;99657.25;5344172;26;33913;-79
2023/09/14 00:45:41;;;;;;;0.43;0.37;;;;;;;23.48;60.39;99646.44;5343879;26;34921;-79
2023/09/14 00:48:10;;;;;;;1.37;0.47;;;;;;;23.82;59.34;99637.69;5344371;26;34406;-79
2023/09/14 00:50:39;;;;;;;1.15;0.75;;;;;;;23.93;58.84;99632.06;5325765;26;33881;-79
2023/09/14 00:53:10;;;;;;;1.27;0.75;;;;;;;23.90;58.97;99613.50;5326355;26;34357;-79
2023/09/14 00:55:38;;;;;;;0.77;0.40;;;;;;;23.57;60.15;99606.94;5326798;26;33536;-79
2023/09/14 00:58:06;;;;;;;0.57;0.57;;;;;;;23.38;60.74;99596.34;5325857;26;33918;-79
2023/09/14 01:00:33;;;;;;;2.37;0.95;;;;;;;23.52;60.30;99590.41;5344896;26;34569;-79
2023/09/14 01:03:01;;;;;;;1.65;1.15;;;;;;;23.61;60.17;99596.72;5343861;26;34035;-80
2023/09/14 01:05:30;;;;;;;0.30;0.30;;;;;;;23.66;59.83;99605.22;5343807;26;34955;-79
2023/09/14 01:07:59;;;;;;;0.47;0.47;;;;;;;23.71;59.82;99601.03;5345029;26;34470;-79
2023/09/14 01:10:27;;;;;;;3.40;1.00;;;;;;;23.88;59.18;99606.53;5344660;26;35216;-79
2023/09/14 01:12:57;;;;;;;0.75;0.73;;;;;;;23.82;59.42;99609.88;5327141;26;34095;-79
2023/09/14 01:15:32;;;;;;;13.95;0.82;;;;;;;24.08;58.59;99610.75;5344846;26;35054;-79
2023/09/14 01:18:19;;;;;;;0.90;0.90;;;;;;;24.03;58.78;99613.09;5344600;26;35054;-79
2023/09/14 01:20:55;;;;;;;0.98;0.88;;;;;;;23.98;58.79;99610.84;5326353;26;34043;-79
2023/09/14 01:23:53;;;;;;;0.65;0.65;;;;;;;23.67;59.64;99604.19;5344763;26;34495;-79
2023/09/14 01:26:21;;;;;;;1.30;0.50;;;;;;;23.54;60.20;99598.31;5344572;26;32888;-79
2023/09/14 01:28:49;;;;;;;0.88;0.65;;;;;;;23.74;59.50;99606.13;5305598;26;34318;-79
2023/09/14 01:31:17;;;;;;;0.13;0.13;;;;;;;23.69;59.58;99602.19;5342160;26;33858;-79
2023/09/14 01:33:48;;;;;;;0.73;0.40;;;;;;;23.94;58.89;99595.16;5342747;26;33980;-79
2023/09/14 01:36:25;;;;;;;1.23;1.12;;;;;;;23.90;58.81;99582.97;5344716;26;35172;-79
2023/09/14 01:38:54;;;;;;;1.67;0.70;;;;;;;23.85;59.01;99567.28;5364616;26;35364;-79
2023/09/14 01:41:22;;;;;;;1.10;0.50;;;;;;;23.81;58.82;99575.84;5345038;26;34029;-80
2023/09/14 01:43:53;;;;;;;0.50;0.50;;;;;;;23.88;58.63;99572.38;5348241;26;33793;-79
2023/09/14 01:46:21;;;;;;;1.27;0.50;;;;;;;23.83;58.61;99574.66;5348344;26;34854;-79
2023/09/14 01:48:49;;;;;;;0.50;0.47;;;;;;;24.05;57.90;99567.06;5366806;26;33952;-79
2023/09/14 01:51:17;;;;;;;1.00;1.00;;;;;;;23.87;58.45;99569.81;5365966;26;34572;-79
2023/09/14 01:53:44;;;;;;;0.60;0.45;;;;;;;24.17;57.54;99566.66;5346485;26;33764;-79
2023/09/14 01:56:12;;;;;;;1.20;1.12;;;;;;;23.73;59.08;99582.84;5348128;26;34701;-78
2023/09/14 01:58:40;;;;;;;1.15;0.62;;;;;;;23.62;59.35;99598.41;5347893;26;35406;-78
2023/09/14 02:01:07;;;;;;;3.87;0.77;;;;;;;23.16;61.14;99593.06;5347640;26;33720;-78
2023/09/14 02:03:35;;;;;;;3.22;0.95;;;;;;;22.86;62.64;99612.22;5366329;26;35165;-79
2023/09/14 02:06:03;;;;;;;0.75;0.57;;;;;;;23.23;61.64;99606.78;5365509;26;33863;-79
2023/09/14 02:08:32;;;;;;;0.28;0.28;;;;;;;22.92;62.80;99596.34;5366836;26;33665;-79
2023/09/14 02:10:59;;;;;;;0.55;0.55;;;;;;;23.06;62.46;99597.69;5366387;26;34213;-80
2023/09/14 02:13:29;;;;;;;2.75;0.40;;;;;;;22.88;63.27;99604.84;5346350;26;33829;-79
2023/09/14 02:15:57;;;;;;;0.15;0.15;;;;;;;22.81;63.62;99611.84;5367707;26;35012;-79
2023/09/14 02:18:25;;;;;;;1.35;1.12;;;;;;;23.02;62.66;99617.81;5368119;26;34538;-80
2023/09/14 02:20:52;;;;;;;0.68;0.68;;;;;;;23.04;62.94;99618.53;5367389;26;35501;-79
2023/09/14 02:23:19;;;;;;;0.88;0.70;;;;;;;23.02;62.82;99617.81;5348884;26;35341;-79
2023/09/14 02:25:49;;;;;;;0.50;0.50;;;;;;;23.32;62.00;99618.50;5367623;26;33723;-79
2023/09/14 02:28:19;;;;;;;0.47;0.47;;;;;;;23.05;62.67;99620.22;5348905;26;35515;-79
2023/09/14 02:30:47;;;;;;;0.40;0.40;;;;;;;22.64;64.33;99625.06;5349944;26;34537;-79
2023/09/14 02:33:15;;;;;;;0.40;0.30;;;;;;;22.82;63.49;99624.28;5367725;26;33826;-79
2023/09/14 02:35:47;;;;;;;0.30;0.30;;;;;;;22.14;66.02;99630.78;5387708;26;34528;-79
2023/09/14 02:38:14;;;;;;;0.50;0.37;;;;;;;22.44;65.06;99634.22;5367718;26;34425;-79
2023/09/14 02:40:42;;;;;;;0.32;0.32;;;;;;;22.55;64.61;99623.31;5349488;26;35127;-79
2023/09/14 02:43:09;;;;;;;1.75;1.30;;;;;;;22.42;65.24;99628.16;5362487;26;34544;-79
2023/09/14 02:45:38;;;;;;;0.52;0.52;;;;;;;22.61;64.43;99620.00;5344888;26;35320;-79
2023/09/14 02:48:06;;;;;;;0.55;0.43;;;;;;;22.71;64.26;99620.81;5345339;26;35464;-79
2023/09/14 02:50:34;;;;;;;0.47;0.45;;;;;;;22.51;65.07;99627.28;5344999;26;35174;-80
2023/09/14 02:53:01;;;;;;;1.33;0.95;;;;;;;22.71;64.36;99628.03;5344861;26;34171;-79
2023/09/14 02:55:29;;;;;;;1.02;0.98;;;;;;;22.74;64.10;99625.91;5365272;26;33409;-79
2023/09/14 02:57:57;;;;;;;0.93;0.55;;;;;;;22.41;65.59;99637.22;5344905;26;33981;-79
2023/09/14 03:00:24;;;;;;;1.27;0.52;;;;;;;22.38;65.57;99632.12;5363516;26;35380;-79
2023/09/14 03:02:53;;;;;;;0.50;0.40;;;;;;;22.73;63.97;99629.56;5345335;26;34208;-79
2023/09/14 03:05:21;;;;;;;0.32;0.28;;;;;;;22.53;64.97;99633.34;5344071;26;34960;-79
2023/09/14 03:07:49;;;;;;;0.17;0.17;;;;;;;23.18;62.14;99631.50;5363546;26;33691;-80
2023/09/14 03:10:18;;;;;;;0.60;0.50;;;;;;;23.04;62.78;99639.25;5363207;26;34140;-79
2023/09/14 03:12:45;;;;;;;1.12;0.65;;;;;;;23.14;62.58;99632.78;5363656;26;35427;-79
2023/09/14 03:15:13;;;;;;;0.37;0.37;;;;;;;23.04;62.96;99640.09;5345207;26;33452;-80
2023/09/14 03:17:41;;;;;;;0.75;0.75;;;;;;;22.93;63.33;99642.97;5345138;26;34383;-80
2023/09/14 03:20:10;;;;;;;0.50;0.50;;;;;;;22.88;63.38;99639.84;5344932;26;34220;-80
2023/09/14 03:22:38;;;;;;;0.73;0.70;;;;;;;22.86;63.52;99644.53;5345058;26;34011;-79
2023/09/14 03:25:06;;;;;;;0.70;0.70;;;;;;;22.88;63.54;99638.03;5345158;26;33885;-80
2023/09/14 03:27:35;;;;;;;1.48;1.00;;;;;;;22.86;63.50;99639.16;5363222;26;34082;-79
2023/09/14 03:30:04;;;;;;;0.52;0.52;;;;;;;23.08;62.63;99633.41;5345349;26;34256;-79
2023/09/14 03:32:31;;;;;;;0.60;0.57;;;;;;;22.92;63.17;99638.59;5343857;26;34070;-79
2023/09/14 03:34:59;;;;;;;0.20;0.20;;;;;;;23.17;62.05;99637.88;5363577;26;33123;-78
2023/09/14 03:37:28;;;;;;;0.20;0.20;;;;;;;23.12;62.53;99637.50;5363674;26;34276;-80
2023/09/14 03:39:55;;;;;;;0.75;0.75;;;;;;;22.92;63.35;99644.81;5344786;26;34028;-79
2023/09/14 03:42:23;;;;;;;1.33;0.43;;;;;;;23.21;62.25;99636.56;5363221;26;34161;-80
2023/09/14 03:44:51;;;;;;;0.98;0.88;;;;;;;22.81;63.36;99641.44;5363080;26;34807;-79
2023/09/14 03:47:19;;;;;;;1.15;0.93;;;;;;;23.05;62.51;99649.00;5362301;26;34459;-79
2023/09/14 03:49:46;;;;;;;0.65;0.62;;;;;;;22.91;63.19;99653.91;5344420;26;35240;-79
2023/09/14 03:52:14;;;;;;;0.20;0.20;;;;;;;23.39;61.70;99646.50;5344847;26;33932;-79
2023/09/14 03:54:42;;;;;;;0.37;0.37;;;;;;;22.94;62.86;99653.59;5344262;26;34583;-79
2023/09/14 03:57:14;;;;;;;1.55;0.85;;;;;;;23.14;61.96;99666.97;5363190;26;34991;-79
2023/09/14 03:59:43;;;;;;;1.85;0.40;;;;;;;23.11;62.27;99660.00;5363407;26;34041;-79
2023/09/14 04:02:11;;;;;;;2.03;0.98;;;;;;;23.30;61.62;99653.66;5345106;26;33483;-79
2023/09/14 04:04:41;;;;;;;0.50;0.50;;;;;;;23.28;61.65;99655.66;5344326;26;33879;-80
2023/09/14 04:07:08;;;;;;;0.50;0.50;;;;;;;23.03;62.66;99667.19;5362940;26;35333;-79
2023/09/14 04:09:36;;;;;;;0.68;0.68;;;;;;;22.95;62.84;99666.06;5363257;26;34417;-80
2023/09/14 04:12:04;;;;;;;0.40;0.40;;;;;;;22.72;63.57;99676.31;5344865;26;34082;-79
2023/09/14 04:14:32;;;;;;;0.80;0.80;;;;;;;22.70;63.69;99674.78;5344126;26;33295;-80
2023/09/14 04:17:01;;;;;;;1.10;0.73;;;;;;;22.87;63.19;99674.00;5363106;26;33850;-80
2023/09/14 04:19:29;;;;;;;0.43;0.40;;;;;;;22.99;62.55;99674.69;5363742;26;34226;-80
2023/09/14 04:21:59;;;;;;;3.17;1.55;;;;;;;22.73;63.63;99683.41;5345246;26;33903;-80
2023/09/14 04:24:28;;;;;;;2.45;1.12;;;;;;;22.91;62.75;99674.59;5360325;26;33730;-80
2023/09/14 04:26:56;;;;;;;0.43;0.43;;;;;;;22.60;64.33;99682.91;5342894;26;35201;-79
2023/09/14 04:29:24;;;;;;;0.73;0.50;;;;;;;22.79;63.53;99684.69;5360569;26;34238;-80
2023/09/14 04:31:52;;;;;;;0.52;0.52;;;;;;;23.03;62.71;99669.88;5360768;26;34380;-80
2023/09/14 04:34:19;;;;;;;2.30;0.77;;;;;;;22.69;63.81;99681.16;5342277;26;35038;-80
2023/09/14 04:36:47;;;;;;;0.85;0.80;;;;;;;22.73;63.72;99683.41;5360936;26;33965;-79
2023/09/14 04:39:15;;;;;;;1.15;1.02;;;;;;;22.60;63.91;99688.28;5341683;26;35294;-79
2023/09/14 04:41:43;;;;;;;1.60;1.20;;;;;;;22.53;64.59;99686.31;5327161;26;34558;-79
2023/09/14 04:44:11;;;;;;;0.43;0.43;;;;;;;22.56;64.46;99691.41;5346166;26;33569;-79
2023/09/14 04:46:38;;;;;;;0.70;0.70;;;;;;;22.67;63.88;99693.91;5364464;26;35038;-80
2023/09/14 04:49:07;;;;;;;1.40;1.30;;;;;;;22.26;65.33;99695.16;5346816;26;34299;-79
2023/09/14 04:51:34;;;;;;;0.93;0.90;;;;;;;22.60;64.26;99698.19;5346414;26;34151;-80
2023/09/14 04:54:03;;;;;;;2.00;1.80;;;;;;;22.75;63.72;99692.19;5364619;26;34962;-78
2023/09/14 04:56:32;;;;;;;0.57;0.45;;;;;;;22.45;64.33;99700.50;5346021;26;34082;-79
2023/09/14 04:59:01;;;;;;;5.25;1.23;;;;;;;22.73;63.87;99694.16;5364674;26;36100;-79
2023/09/14 05:01:29;;;;;;;1.15;1.05;;;;;;;22.91;62.92;99701.50;5364700;26;34440;-79
2023/09/14 05:03:58;;;;;;;0.80;0.73;;;;;;;22.59;63.76;99702.72;5364396;26;33704;-79
2023/09/14 05:06:28;;;;;;;0.47;0.47;;;;;;;22.51;64.16;99699.94;5365140;26;35260;-79
2023/09/14 05:08:57;;;;;;;0.93;0.93;;;;;;;22.46;64.46;99702.22;5364722;26;33726;-79
2023/09/14 05:11:25;;;;;;;0.85;0.73;;;;;;;22.57;63.85;99707.41;5347373;26;33890;-81
2023/09/14 05:13:54;;;;;;;0.60;0.55;;;;;;;22.51;64.00;99708.00;5365299;26;33642;-80
2023/09/14 05:16:22;;;;;;;0.52;0.32;;;;;;;22.60;63.91;99707.12;5346918;26;34103;-80
2023/09/14 05:18:50;;;;;;;0.43;0.43;;;;;;;22.29;65.20;99711.00;5365429;26;35422;-80
2023/09/14 05:21:18;;;;;;;0.40;0.40;;;;;;;22.22;65.06;99714.28;5365100;26;34054;-79
2023/09/14 05:23:45;;;;;;;0.60;0.60;;;;;;;22.44;64.53;99712.25;5364804;26;35061;-79
2023/09/14 05:26:13;;;;;;;0.50;0.43;;;;;;;22.56;64.11;99708.41;5364917;26;35368;-79
2023/09/14 05:28:42;;;;;;;0.82;0.50;;;;;;;22.57;64.14;99710.09;5364394;26;36156;-79
2023/09/14 05:31:11;;;;;;;2.30;1.35;;;;;;;22.73;63.47;99704.94;5364894;26;33808;-80
2023/09/14 05:33:39;;;;;;;1.70;1.20;;;;;;;23.02;62.66;99709.38;5367636;26;33605;-79
2023/09/14 05:36:07;;;;;;;1.95;0.98;;;;;;;22.91;62.97;99710.44;5367667;26;35428;-79
2023/09/14 05:38:34;;;;;;;0.75;0.62;;;;;;;22.96;62.80;99710.00;5367969;26;34665;-79
2023/09/14 05:41:03;;;;;;;0.85;0.55;;;;;;;22.75;63.73;99708.34;5349370;26;33836;-79
2023/09/14 05:43:30;;;;;;;1.00;1.00;;;;;;;22.78;63.63;99714.41;5347659;26;33908;-79
2023/09/14 05:46:01;;;;;;;1.55;1.33;;;;;;;22.89;63.31;99715.12;5349226;26;35440;-79
2023/09/14 05:48:31;;;;;;;0.65;0.65;;;;;;;22.62;64.09;99717.75;5365200;26;34107;-80
2023/09/14 05:50:59;;;;;;;0.90;0.90;;;;;;;22.67;64.17;99726.22;5351556;26;35328;-79
2023/09/14 05:53:26;;;;;;;1.05;0.95;;;;;;;22.91;63.20;99723.06;5369560;26;33456;-79
2023/09/14 05:55:55;;;;;;;2.20;1.37;;;;;;;22.70;64.10;99721.41;5367933;26;34949;-78
2023/09/14 05:58:22;;;;;;;0.25;0.25;;;;;;;22.98;62.90;99718.78;5369666;26;34394;-78
2023/09/14 06:00:51;;;;;;;1.75;0.75;;;;;;;22.85;63.89;99723.62;5351192;26;34304;-78
2023/09/14 06:03:19;;;;;;;0.30;0.30;;;;;;;22.84;64.03;99719.22;5370266;26;33470;-78
2023/09/14 06:05:46;;;;;;;1.05;1.05;;;;;;;22.65;64.41;99723.69;5369321;26;33514;-78
2023/09/14 06:08:14;;;;;;;0.20;0.20;;;;;;;23.10;63.33;99717.56;5348413;26;35424;-79
2023/09/14 06:10:42;;;;;;;0.50;0.50;;;;;;;23.18;63.10;99720.38;5348727;26;35245;-79
2023/09/14 06:13:11;;;;;;;0.85;0.45;;;;;;;23.23;63.05;99722.62;5349341;26;34242;-79
2023/09/14 06:15:39;;;;;;;0.30;0.30;;;;;;;23.11;63.51;99729.19;5330937;26;32974;-81
2023/09/14 06:18:07;;;;;;;0.70;0.70;;;;;;;23.68;61.46;99725.34;5367584;26;34413;-80
2023/09/14 06:20:34;;;;;;;0.52;0.52;;;;;;;23.39;61.80;99717.41;5330531;26;32891;-80
2023/09/14 06:23:02;;;;;;;16.42;1.08;;;;;;;23.38;61.94;99722.97;5367504;26;33495;-80
2023/09/14 06:25:29;;;;;;;3.00;1.08;;;;;;;23.57;61.55;99730.94;5367814;26;33297;-80
2023/09/14 06:27:57;;;;;;;2.58;0.80;;;;;;;23.21;62.06;99730.00;5348565;26;33623;-80
2023/09/14 06:30:24;;;;;;;1.30;0.82;;;;;;;23.52;61.30;99734.06;5367416;26;34237;-80
2023/09/14 06:32:52;;;;;;;0.82;0.82;;;;;;;23.45;61.41;99732.13;5329575;26;32768;-80
2023/09/14 06:35:20;;;;;;;0.40;0.37;;;;;;;24.05;59.56;99734.28;5366809;26;33753;-81
2023/09/14 06:37:47;;;;;;;0.55;0.55;;;;;;;24.05;59.43;99737.84;5348540;26;32825;-80
2023/09/14 06:40:15;;;;;;;0.37;0.37;;;;;;;24.35;58.31;99741.09;5367660;26;33691;-79
2023/09/14 06:42:43;;;;;;;1.52;0.88;;;;;;;24.22;58.79;99742.37;5329674;26;32540;-80
2023/09/14 06:45:10;;;;;;;0.20;0.20;;;;;;;24.46;58.51;99746.31;5348754;26;33856;-80
2023/09/14 06:47:38;;;;;;;2.85;1.45;;;;;;;24.26;59.24;99738.38;5367119;26;34152;-80
2023/09/14 06:50:07;;;;;;;0.68;0.68;;;;;;;24.63;58.07;99745.41;5367315;26;33822;-80
2023/09/14 06:52:35;;;;;;;0.82;0.82;;;;;;;24.83;57.79;99747.88;5348586;26;32680;-81
2023/09/14 06:55:03;;;;;;;0.35;0.35;;;;;;;24.76;57.74;99745.81;5349441;26;33384;-82
2023/09/14 06:57:31;;;;;;;0.77;0.73;;;;;;;24.67;58.06;99754.88;5332549;26;33157;-81
2023/09/14 07:00:00;;;;;;;0.65;0.65;;;;;;;24.79;57.32;99760.88;5368563;26;33638;-81
2023/09/14 07:02:30;;;;;;;0.57;0.55;;;;;;;24.99;56.79;99756.09;5367517;26;32482;-81
2023/09/14 07:04:57;;;;;;;1.67;1.05;;;;;;;25.15;56.31;99766.16;5367855;26;32766;-80
2023/09/14 07:07:25;;;;;;;4.12;0.85;;;;;;;25.78;54.29;99766.59;5368516;26;33652;-80
2023/09/14 07:09:53;;;;;;;1.55;1.45;;;;;;;25.83;53.94;99765.22;5348929;26;32771;-80
2023/09/14 07:12:20;;;;;;;1.55;0.98;;;;;;;25.65;54.38;99773.47;5368166;26;33418;-80
2023/09/14 07:14:48;;;;;;;0.82;0.82;;;;;;;25.44;54.68;99782.00;5331129;26;33869;-80
2023/09/14 07:17:16;;;;;;;0.32;0.32;;;;;;;25.42;55.48;99786.72;5349722;26;33066;-80
2023/09/14 07:19:44;;;;;;;0.22;0.22;;;;;;;25.41;55.02;99785.88;5349755;26;32911;-80
2023/09/14 07:22:11;;;;;;;0.90;0.68;;;;;;;25.01;56.68;99786.47;5330130;26;32207;-80
2023/09/14 07:24:39;;;;;;;0.62;0.52;;;;;;;25.03;56.25;99801.53;5350182;26;32908;-80
2023/09/14 07:27:07;;;;;;;3.03;1.27;;;;;;;25.32;55.39;99791.41;5331690;26;33110;-81
2023/09/14 07:29:35;;;;;;;2.72;0.80;;;;;;;25.10;56.57;99784.72;5349867;26;33779;-80
2023/09/14 07:32:03;;;;;;;1.87;1.52;;;;;;;25.71;55.59;99781.75;5350243;26;34240;-80
2023/09/14 07:34:31;;;;;;;1.02;1.02;;;;;;;25.01;57.24;99798.13;5331372;26;33546;-80
2023/09/14 07:36:58;;;;;;;0.20;0.20;;;;;;;25.71;55.27;99789.88;5368534;26;33671;-80
2023/09/14 07:39:26;;;;;;;1.23;1.12;;;;;;;26.01;53.98;99798.41;5368355;26;35029;-80
2023/09/14 07:41:55;;;;;;;1.42;1.33;;;;;;;26.01;53.64;99801.97;5330952;26;32235;-80
2023/09/14 07:44:23;;;;;;;1.00;0.93;;;;;;;25.87;54.10;99799.06;5349002;26;35084;-80
2023/09/14 07:46:51;;;;;;;1.25;1.15;;;;;;;25.78;54.61;99804.47;5368463;26;32892;-80
2023/09/14 07:49:19;;;;;;;0.82;0.77;;;;;;;25.38;56.02;99815.09;5367846;26;33113;-80
2023/09/14 07:51:46;;;;;;;0.75;0.75;;;;;;;25.28;56.76;99816.03;5349428;26;34321;-80
2023/09/14 07:54:16;;;;;;;1.58;0.75;;;;;;;25.62;56.28;99815.19;5349163;26;33382;-80
2023/09/14 07:56:44;;;;;;;0.88;0.88;;;;;;;25.41;56.62;99809.38;5349865;26;33822;-80
2023/09/14 07:59:11;;;;;;;1.60;1.50;;;;;;;25.54;56.13;99815.12;5331033;26;32787;-80
2023/09/14 08:01:39;;;;;;;1.65;0.98;;;;;;;25.53;56.31;99808.03;5349539;26;31791;-80
2023/09/14 08:04:07;;;;;;;1.12;1.02;;;;;;;25.16;57.37;99822.75;5329991;26;32633;-80
2023/09/14 08:06:35;;;;;;;0.70;0.70;;;;;;;25.23;57.27;99817.53;5349703;26;33200;-80
2023/09/14 08:09:03;;;;;;;0.98;0.98;;;;;;;25.63;56.27;99824.13;5349443;26;33863;-80
2023/09/14 08:11:34;;;;;;;0.85;0.85;;;;;;;25.37;56.78;99826.91;5349811;26;32285;-80
2023/09/14 08:14:01;;;;;;;1.58;1.48;;;;;;;25.38;56.46;99828.59;5367963;26;33133;-80
2023/09/14 08:16:32;;;;;;;0.80;0.80;;;;;;;25.78;55.01;99828.81;5349155;26;32924;-80
2023/09/14 08:19:00;;;;;;;0.85;0.85;;;;;;;25.51;55.51;99820.91;5367131;26;33171;-80
2023/09/14 08:21:28;;;;;;;1.23;1.00;;;;;;;25.50;55.86;99828.16;5330878;26;32782;-80
2023/09/14 08:23:55;;;;;;;1.30;1.20;;;;;;;25.54;55.84;99829.53;5368037;26;33505;-80
2023/09/14 08:26:23;;;;;;;0.50;0.40;;;;;;;25.59;55.47;99823.63;5331112;26;32618;-80
2023/09/14 08:28:51;;;;;;;3.50;1.75;;;;;;;25.77;55.42;99829.78;5368393;26;33938;-80
2023/09/14 08:31:19;;;;;;;1.00;1.00;;;;;;;25.47;56.48;99825.78;5331232;26;33293;-80
2023/09/14 08:33:47;;;;;;;0.75;0.75;;;;;;;25.62;55.93;99828.69;5349585;26;32813;-80
2023/09/14 08:36:16;;;;;;;3.22;1.48;;;;;;;26.01;54.95;99828.16;5349383;26;33922;-80
2023/09/14 08:38:43;;;;;;;2.83;1.92;;;;;;;26.44;53.15;99832.50;5367523;26;34026;-80
2023/09/14 08:41:24;;;;;;;1.55;0.80;;;;;;;26.49;52.96;99824.75;5367836;26;33580;-80
2023/09/14 08:43:52;;;;;;;0.55;0.55;;;;;;;26.40;53.27;99822.16;5365408;26;32911;-80
2023/09/14 08:46:20;;;;;;;1.33;1.20;;;;;;;26.08;54.47;99823.81;5365258;26;34047;-80
2023/09/14 08:48:48;;;;;;;2.10;1.08;;;;;;;26.19;54.23;99826.19;5346736;26;35230;-80
2023/09/14 08:51:16;;;;;;;0.70;0.70;;;;;;;26.68;52.89;99831.69;5347180;26;33843;-81
2023/09/14 08:53:44;;;;;;;1.75;1.17;;;;;;;26.57;52.65;99833.87;5345820;26;33114;-80
2023/09/14 08:56:13;;;;;;;1.87;1.73;;;;;;;26.29;52.58;99832.28;5349237;26;34070;-80
2023/09/14 08:58:44;;;;;;;1.45;1.23;;;;;;;26.65;52.73;99832.00;5368196;26;33439;-80
2023/09/14 09:01:13;;;;;;;0.50;0.50;;;;;;;26.49;52.58;99829.28;5328539;26;32524;-80
2023/09/14 09:03:41;;;;;;;1.00;0.93;;;;;;;26.85;51.38;99827.06;5328270;26;34297;-80
2023/09/14 09:06:10;;;;;;;1.70;1.60;;;;;;;27.18;50.44;99824.34;5346605;26;33145;-80
2023/09/14 09:08:38;;;;;;;0.57;0.55;;;;;;;26.95;51.01;99826.88;5327848;26;33830;-80
2023/09/14 09:11:06;;;;;;;1.10;0.75;;;;;;;27.08;51.39;99829.94;5346480;26;33799;-80
2023/09/14 09:13:35;;;;;;;1.62;1.50;;;;;;;27.28;50.76;99828.53;5346887;26;33356;-81
2023/09/14 09:16:04;;;;;;;1.42;1.08;;;;;;;27.25;50.70;99823.47;5346046;26;33589;-80
2023/09/14 09:18:35;;;;;;;1.10;1.08;;;;;;;27.72;48.94;99825.34;5328684;26;33408;-80
2023/09/14 09:21:05;;;;;;;1.48;1.35;;;;;;;28.24;48.64;99813.84;5328507;26;33478;-80
2023/09/14 09:23:34;;;;;;;1.00;0.98;;;;;;;28.49;46.43;99809.13;5347038;26;34820;-80
2023/09/14 09:26:02;;;;;;;0.88;0.85;;;;;;;28.32;46.53;99808.34;5365419;26;33842;-80
2023/09/14 09:28:30;;;;;;;1.10;1.00;;;;;;;27.79;48.07;99823.63;5364755;26;33755;-80
2023/09/14 09:31:01;;;;;;;0.60;0.60;;;;;;;27.81;48.25;99809.87;5345662;26;32790;-80
2023/09/14 09:33:36;;;;;;;1.00;0.95;;;;;;;27.86;47.92;99820.19;5348295;26;35269;-80
2023/09/14 09:36:16;;;;;;;1.08;1.00;;;;;;;27.63;48.67;99820.97;5348801;26;33818;-80
2023/09/14 09:38:47;;;;;;;2.50;1.52;;;;;;;27.29;48.37;99819.38;5349239;26;33503;-80
2023/09/14 09:41:15;;;;;;;2.05;1.02;;;;;;;27.58;48.21;99820.63;5349094;26;32355;-80
2023/09/14 09:43:44;;;;;;;2.30;1.50;;;;;;;28.03;47.44;99810.94;5387586;26;33613;-80
2023/09/14 09:46:16;;;;;;;0.88;0.55;;;;;;;27.97;46.97;99817.09;5347472;26;34734;-80
2023/09/14 09:48:44;;;;;;;1.45;1.23;;;;;;;27.50;47.54;99810.69;5364622;26;32890;-80
2023/09/14 09:51:13;;;;;;;1.77;1.62;;;;;;;27.97;46.49;99811.66;5346508;26;34084;-80
2023/09/14 09:54:03;;;;;;;0.60;0.60;;;;;;;27.26;48.62;99822.47;5346187;26;33522;-80
2023/09/14 09:56:33;;;;;;;0.57;0.50;;;;;;;27.76;47.85;99823.13;5346614;26;33047;-80
2023/09/14 09:59:03;;;;;;;0.85;0.85;;;;;;;28.13;47.97;99819.69;5365003;26;34767;-82
2023/09/14 10:01:31;;;;;;;1.33;1.25;;;;;;;27.99;48.27;99820.47;5346228;26;32608;-81
2023/09/14 10:03:59;;;;;;;0.70;0.65;;;;;;;27.78;48.53;99827.38;5384501;26;34648;-81
2023/09/14 10:06:27;;;;;;;0.52;0.52;;;;;;;27.94;48.31;99822.88;5364191;26;33587;-82
2023/09/14 10:08:57;;;;;;;1.95;1.37;;;;;;;28.12;48.16;99818.00;5360704;26;33695;-82
2023/09/14 10:11:26;;;;;;;1.20;0.85;;;;;;;28.39;47.90;99821.22;5347607;26;32693;-82
2023/09/14 10:13:54;;;;;;;0.80;0.57;;;;;;;28.57;47.03;99816.31;5348802;26;33985;-81
2023/09/14 10:16:25;;;;;;;0.75;0.75;;;;;;;28.89;46.44;99811.63;5364653;26;33512;-81
2023/09/14 10:18:56;;;;;;;2.30;0.52;;;;;;;28.84;45.92;99815.75;5346169;26;33892;-82
2023/09/14 10:21:25;;;;;;;0.68;0.68;;;;;;;28.64;46.68;99824.59;5327511;26;33554;-81
2023/09/14 10:23:53;;;;;;;1.30;0.88;;;;;;;28.66;46.80;99827.97;5345302;26;33014;-82
2023/09/14 10:26:21;;;;;;;1.37;0.88;;;;;;;28.64;47.43;99825.44;5345033;26;34305;-81
2023/09/14 10:28:48;;;;;;;1.67;1.12;;;;;;;28.21;47.82;99830.50;5345109;26;32841;-82
2023/09/14 10:31:16;;;;;;;3.40;1.55;;;;;;;27.78;48.68;99831.94;5325165;26;32190;-82
2023/09/14 10:33:49;;;;;;;3.97;2.15;;;;;;;27.94;48.47;99825.59;5344817;26;34309;-82
2023/09/14 10:36:17;;;;;;;0.90;0.77;;;;;;;28.26;48.20;99821.81;5327825;26;32868;-81
2023/09/14 10:38:47;;;;;;;1.08;0.98;;;;;;;27.99;48.14;99815.03;5326939;26;32859;-82
2023/09/14 10:41:15;;;;;;;1.58;1.20;;;;;;;27.34;49.76;99828.84;5327801;26;32904;-82
2023/09/14 10:43:43;;;;;;;1.62;0.82;;;;;;;27.78;49.05;99824.66;5345183;26;32868;-82
2023/09/14 10:46:15;;;;;;;1.12;0.95;;;;;;;28.22;46.53;99821.31;5346552;26;32868;-82
2023/09/14 10:48:44;;;;;;;1.08;1.00;;;;;;;28.22;46.94;99815.91;5347183;26;32906;-82
2023/09/14 10:51:13;;;;;;;1.12;1.02;;;;;;;28.02;47.70;99814.69;5346755;26;33186;-82
2023/09/14 10:53:42;;;;;;;0.80;0.65;;;;;;;28.03;46.24;99819.94;5346772;26;33331;-82
2023/09/14 10:56:23;;;;;;;0.52;0.45;;;;;;;27.37;50.30;99832.06;5328241;26;33914;-81
2023/09/14 10:58:52;;;;;;;0.57;0.57;;;;;;;27.58;48.39;99826.06;5365338;26;34232;-81
2023/09/14 11:01:24;;;;;;;0.37;0.37;;;;;;;26.91;50.84;99833.66;5328317;26;32397;-81
2023/09/14 11:04:09;;;;;;;2.22;0.95;;;;;;;27.12;50.08;99831.31;5328335;26;32622;-81
2023/09/14 11:06:46;;;;;;;0.88;0.77;;;;;;;27.01;50.42;99839.75;5342622;26;32971;-81
2023/09/14 11:09:16;;;;;;;2.05;1.37;;;;;;;27.10;50.73;99840.63;5321089;26;35390;-81
2023/09/14 11:11:46;;;;;;;1.27;0.65;;;;;;;27.24;50.47;99843.44;5345674;26;34268;-82
2023/09/14 11:14:20;;;;;;;0.22;0.22;;;;;;;27.52;49.36;99835.75;5345813;26;33518;-81
2023/09/14 11:16:53;;;;;;;1.35;0.68;;;;;;;27.31;49.23;99843.63;5347297;26;33816;-81
2023/09/14 11:19:31;;;;;;;0.57;0.57;;;;;;;27.41;49.37;99840.72;5347196;26;32894;-82
2023/09/14 11:22:05;;;;;;;0.90;0.60;;;;;;;27.42;49.10;99845.09;5384846;26;33093;-82
2023/09/14 11:24:38;;;;;;;1.20;0.73;;;;;;;27.62;49.01;99843.66;5366371;26;34085;-81
2023/09/14 11:27:08;;;;;;;0.62;0.60;;;;;;;27.99;47.81;99836.75;5347839;26;33771;-81
2023/09/14 11:29:42;;;;;;;0.70;0.70;;;;;;;27.61;48.56;99835.72;5328802;26;34238;-82
2023/09/14 11:32:12;;;;;;;0.45;0.43;;;;;;;27.89;48.16;99838.84;5347070;26;34218;-81
2023/09/14 11:34:44;;;;;;;0.93;0.90;;;;;;;28.00;47.61;99835.72;5348196;26;32946;-82
2023/09/14 11:37:16;;;;;;;0.47;0.47;;;;;;;28.26;47.16;99838.09;5365753;26;34626;-82
2023/09/14 11:39:52;;;;;;;0.20;0.20;;;;;;;27.89;48.14;99857.84;5344050;26;33608;-81
2023/09/14 11:43:21;;;;;;;1.65;0.47;;;;;;;27.64;47.37;99857.91;5325726;26;32712;-81